Ana Sayfa
METAR-TAF:

METAR-TAF

Havaalanları :

Bingöl Havalimanı

Bingöl, Türkiye

Enlem: 38-51-40N, Boylam: 40-35-33E, yükseklik: 1063 m

Güncel hava durumu gözlemi

Rapor saat 11:50 UTC de 1 saat ve 8 dakika önce yapıldı.
Rüzgar değişken yönden 3 kt
Sıcaklık 34°C
Nem 18%
Basınç 1010 hPa
Görüş mesafesi 10 km veya daha fazla
3500 ft yükseklikte parçalı bulutlu

METAR: LTCU 201150Z VRB03KT 9999 SCT035 34/06 Q1010

Saat: 15:58 (12:58 UTC)

Tahmin

Rapor saat 10:40 UTC de 2 saat ve 18 dakika önce yapıldı.
Ayın 20'si saat 12 UTC'den ayın 20'si saat 21 UTC'ye kadar geçerli Tahmin
Rüzgar batı/kuzeybatıdan 12 kt
Görüş mesafesi 10 km veya daha fazla
3500 ft yükseklikte az bulutlu
Dönüşüyor
ayın 20'si saat 15 UTC'den ayın 20'si saat 18 UTC'ye kadar
Rüzgar değişken yönden 2 kt
Görüş mesafesi 10 km veya daha fazla
1500 m altında bulut yok ve kümülonimbus yok

TAF: LTCU 201040Z 2012/2021 30012KT 9999 FEW035 BECMG 2015/2018 VRB02KT CAVOK

4.000'den fazla havaalanı için hava durumu gözlemleri ve tahminleri (METAR ve TAF raporları).

Kullanılabilir istasyonlar harita üzerinde sarı ve kırmızı noktalarla gösterilir.

İstasyonun adını görmek için fareyi noktanın üzerinde gezdirin.

Sonrasında hava gözlem ve tahminlerini görmek için tıklayın.

Haritayı değiştirmek için: yaklaştırmak için siyah artı işaretli yeşil düğmeye ve uzaklaştırmak için de eksi işaretli düğmeye hızla tıklayın; bitişik haritalar için yeşil okları kullanın.


METAR-TAF: